createdAt,value
2023-01-05T00:01:06.443Z,99388.22
2023-01-05T00:03:33.574Z,99383.47
2023-01-05T00:06:01.024Z,99383.13
2023-01-05T00:08:32.950Z,99385.53
2023-01-05T00:11:27.136Z,99376.72
2023-01-05T00:14:12.228Z,99381.41
2023-01-05T00:16:57.011Z,99390.66
2023-01-05T00:19:42.235Z,99377.81
2023-01-05T00:22:30.658Z,99367.03
2023-01-05T00:25:09.256Z,99369.75
2023-01-05T00:27:38.855Z,99376.06
2023-01-05T00:30:06.247Z,99376.38
2023-01-05T00:32:32.814Z,99369.97
2023-01-05T00:34:59.715Z,99369.63
2023-01-05T00:37:28.747Z,99390.34
2023-01-05T00:39:55.183Z,99378.38
2023-01-05T00:42:22.360Z,99393.53
2023-01-05T00:44:48.851Z,99385.44
2023-01-05T00:47:15.442Z,99378.91
2023-01-05T00:49:41.918Z,99382.44
2023-01-05T00:52:08.737Z,99381.44
2023-01-05T00:54:35.162Z,99387.84
2023-01-05T00:57:01.792Z,99393.00
2023-01-05T00:59:28.323Z,99385.09
2023-01-05T01:01:55.041Z,99386.94
2023-01-05T01:04:21.850Z,99389.00
2023-01-05T01:06:49.030Z,99372.28
2023-01-05T01:09:16.470Z,99388.81
2023-01-05T01:11:42.963Z,99387.97
2023-01-05T01:14:11.735Z,99374.19
2023-01-05T01:16:38.340Z,99379.22
2023-01-05T01:19:05.644Z,99389.50
2023-01-05T01:21:32.509Z,99382.94
2023-01-05T01:23:58.938Z,99385.81
2023-01-05T01:26:25.531Z,99387.66
2023-01-05T01:28:51.907Z,99381.78
2023-01-05T01:31:18.510Z,99374.00
2023-01-05T01:33:44.960Z,99376.69
2023-01-05T01:36:11.732Z,99390.34
2023-01-05T01:38:38.175Z,99375.69
2023-01-05T01:41:04.703Z,99383.59
2023-01-05T01:43:44.802Z,99390.84
2023-01-05T01:46:12.799Z,99392.88
2023-01-05T01:48:46.727Z,99390.84
2023-01-05T01:51:17.544Z,99396.34
2023-01-05T01:53:50.235Z,99387.97
2023-01-05T01:56:18.849Z,99407.03
2023-01-05T01:58:45.391Z,99399.94
2023-01-05T02:01:12.010Z,99390.50
2023-01-05T02:03:39.298Z,99379.22
2023-01-05T02:06:06.339Z,99384.44
2023-01-05T02:08:33.300Z,99401.63
2023-01-05T02:11:30.791Z,99389.00
2023-01-05T02:14:19.555Z,99400.47
2023-01-05T02:17:06.132Z,99399.28
2023-01-05T02:20:22.323Z,99383.47
2023-01-05T02:23:06.303Z,99384.16
2023-01-05T02:25:42.303Z,99380.28
2023-01-05T02:28:18.259Z,99367.31
2023-01-05T02:31:08.861Z,99358.13
2023-01-05T02:34:07.296Z,99372.44
2023-01-05T02:36:45.119Z,99378.47
2023-01-05T02:39:15.690Z,99396.41
2023-01-05T02:42:05.342Z,99392.28
2023-01-05T02:44:33.232Z,99393.47
2023-01-05T02:47:28.159Z,99381.41
2023-01-05T02:50:01.460Z,99388.28
2023-01-05T02:52:30.996Z,99376.84
2023-01-05T02:55:06.555Z,99376.16
2023-01-05T02:57:53.665Z,99363.50
2023-01-05T03:00:24.822Z,99360.56
2023-01-05T03:02:54.891Z,99366.34
2023-01-05T03:05:28.821Z,99361.38
2023-01-05T03:08:07.026Z,99358.50
2023-01-05T03:11:06.973Z,99360.84
2023-01-05T03:13:41.306Z,99360.63
2023-01-05T03:16:09.747Z,99356.25
2023-01-05T03:18:56.874Z,99354.72
2023-01-05T03:21:26.116Z,99354.22
2023-01-05T03:24:13.476Z,99348.16
2023-01-05T03:26:59.116Z,99359.03
2023-01-05T03:29:46.084Z,99373.84
2023-01-05T03:32:36.930Z,99362.53
2023-01-05T03:35:24.695Z,99362.19
2023-01-05T03:37:58.915Z,99355.09
2023-01-05T03:40:29.779Z,99360.84
2023-01-05T03:42:56.868Z,99354.28
2023-01-05T03:45:25.170Z,99355.28
2023-01-05T03:47:51.663Z,99362.66
2023-01-05T03:50:18.220Z,99363.03
2023-01-05T03:52:44.676Z,99363.69
2023-01-05T03:55:11.107Z,99361.47
2023-01-05T03:57:37.520Z,99361.00
2023-01-05T04:00:05.089Z,99365.88
2023-01-05T04:02:31.663Z,99371.41
2023-01-05T04:04:58.301Z,99384.59
2023-01-05T04:07:24.732Z,99385.16
2023-01-05T04:09:51.159Z,99399.88
2023-01-05T04:12:17.595Z,99411.88
2023-01-05T04:14:44.161Z,99389.06
2023-01-05T04:17:10.617Z,99402.78
2023-01-05T04:19:37.086Z,99398.09
2023-01-05T04:22:03.484Z,99386.50
2023-01-05T04:24:30.167Z,99391.72
2023-01-05T04:26:56.601Z,99400.06
2023-01-05T04:29:23.031Z,99387.63
2023-01-05T04:31:49.458Z,99393.00
2023-01-05T04:34:15.971Z,99399.38
2023-01-05T04:36:42.464Z,99405.38
2023-01-05T04:39:08.905Z,99398.69
2023-01-05T04:41:35.353Z,99404.59
2023-01-05T04:44:01.820Z,99403.56
2023-01-05T04:46:28.759Z,99402.72
2023-01-05T04:48:55.222Z,99421.06
2023-01-05T04:51:21.694Z,99412.19
2023-01-05T04:53:48.095Z,99421.94
2023-01-05T04:56:14.476Z,99426.97
2023-01-05T04:58:40.924Z,99429.84
2023-01-05T05:01:07.695Z,99442.81
2023-01-05T05:03:34.471Z,99435.06
2023-01-05T05:06:01.362Z,99434.06
2023-01-05T05:08:27.848Z,99439.59
2023-01-05T05:10:54.288Z,99439.44
2023-01-05T05:13:20.696Z,99448.53
2023-01-05T05:15:47.169Z,99443.47
2023-01-05T05:18:13.899Z,99440.13
2023-01-05T05:20:42.815Z,99437.44
2023-01-05T05:23:09.595Z,99446.53
2023-01-05T05:25:36.234Z,99455.44
2023-01-05T05:28:02.651Z,99450.06
2023-01-05T05:30:29.041Z,99454.75
2023-01-05T05:32:55.532Z,99452.56
2023-01-05T05:35:21.992Z,99467.03
2023-01-05T05:37:52.925Z,99462.00
2023-01-05T05:40:23.663Z,99468.91
2023-01-05T05:42:50.399Z,99471.75
2023-01-05T05:45:16.890Z,99481.16
2023-01-05T05:47:43.937Z,99472.75
2023-01-05T05:50:10.599Z,99485.19
2023-01-05T05:52:37.201Z,99482.50
2023-01-05T05:55:04.119Z,99497.31
2023-01-05T05:57:31.130Z,99470.75
2023-01-05T05:59:57.556Z,99476.97
2023-01-05T06:02:24.172Z,99467.56
2023-01-05T06:04:50.608Z,99471.25
2023-01-05T06:07:17.193Z,99483.00
2023-01-05T06:09:44.641Z,99480.84
2023-01-05T06:12:11.088Z,99481.00
2023-01-05T06:14:37.556Z,99477.81
2023-01-05T06:17:03.992Z,99466.03
2023-01-05T06:19:30.380Z,99481.84
2023-01-05T06:21:56.822Z,99470.41
2023-01-05T06:24:23.303Z,99480.34
2023-01-05T06:26:49.737Z,99490.91
2023-01-05T06:29:16.190Z,99491.25
2023-01-05T06:31:42.585Z,99499.16
2023-01-05T06:34:09.111Z,99498.81
2023-01-05T06:36:35.630Z,99494.63
2023-01-05T06:39:02.121Z,99499.00
2023-01-05T06:41:28.563Z,99500.19
2023-01-05T06:43:54.964Z,99505.56
2023-01-05T06:46:21.494Z,99510.63
2023-01-05T06:48:47.997Z,99501.03
2023-01-05T06:51:14.615Z,99515.16
2023-01-05T06:53:41.029Z,99520.53
2023-01-05T06:56:07.714Z,99515.31
2023-01-05T06:58:34.162Z,99523.22
2023-01-05T07:01:00.900Z,99520.53
2023-01-05T07:03:27.461Z,99522.72
2023-01-05T07:05:53.857Z,99530.09
2023-01-05T07:08:20.270Z,99545.41
2023-01-05T07:10:46.690Z,99524.56
2023-01-05T07:13:13.101Z,99527.94
2023-01-05T07:15:39.583Z,99529.25
2023-01-05T07:18:06.040Z,99532.47
2023-01-05T07:20:32.499Z,99547.97
2023-01-05T07:22:58.944Z,99553.81
2023-01-05T07:25:31.235Z,99561.91
2023-01-05T07:27:58.263Z,99577.03
2023-01-05T07:30:25.003Z,99563.75
2023-01-05T07:32:51.652Z,99559.19
2023-01-05T07:35:18.122Z,99561.25
2023-01-05T07:37:44.519Z,99560.56
2023-01-05T07:40:11.369Z,99570.34
2023-01-05T07:42:37.801Z,99571.66
2023-01-05T07:45:04.964Z,99565.97
2023-01-05T07:47:31.695Z,99567.28
2023-01-05T07:49:58.188Z,99566.63
2023-01-05T07:52:24.681Z,99575.34
2023-01-05T07:54:53.710Z,99583.78
2023-01-05T07:57:20.111Z,99593.34
2023-01-05T07:59:46.573Z,99596.19
2023-01-05T08:02:13.091Z,99593.13
2023-01-05T08:04:39.664Z,99589.44
2023-01-05T08:07:11.117Z,99587.75
2023-01-05T08:09:59.510Z,99602.53
2023-01-05T08:12:27.783Z,99601.50
2023-01-05T08:14:54.242Z,99598.16
2023-01-05T08:17:20.780Z,99615.47
2023-01-05T08:19:47.264Z,99588.19
2023-01-05T08:22:13.749Z,99605.19
2023-01-05T08:24:40.226Z,99610.25
2023-01-05T08:27:06.637Z,99616.31
2023-01-05T08:29:33.160Z,99610.06
2023-01-05T08:31:59.696Z,99623.69
2023-01-05T08:34:31.366Z,99633.75
2023-01-05T08:37:00.751Z,99631.34
2023-01-05T08:39:27.172Z,99635.03
2023-01-05T08:41:58.850Z,99639.72
2023-01-05T08:44:28.601Z,99645.78
2023-01-05T08:46:55.261Z,99641.47
2023-01-05T08:49:21.769Z,99638.13
2023-01-05T08:51:48.256Z,99641.81
2023-01-05T08:54:14.721Z,99643.50
2023-01-05T08:56:43.273Z,99651.59
2023-01-05T08:59:12.557Z,99646.22
2023-01-05T09:01:39.151Z,99653.13
2023-01-05T09:04:05.973Z,99665.09
2023-01-05T09:06:32.504Z,99665.63
2023-01-05T09:08:58.894Z,99662.16
2023-01-05T09:11:25.892Z,99671.44
2023-01-05T09:13:57.577Z,99664.75
2023-01-05T09:16:57.364Z,99668.97
2023-01-05T09:19:12.847Z,99675.69
2023-01-05T09:21:39.655Z,99675.50
2023-01-05T09:24:07.580Z,99671.94
2023-01-05T09:26:34.143Z,99684.38
2023-01-05T09:29:00.650Z,99674.63
2023-01-05T09:31:27.300Z,99683.34
2023-01-05T09:33:53.800Z,99693.97
2023-01-05T09:36:20.285Z,99685.06
2023-01-05T09:38:51.121Z,99688.06
2023-01-05T09:41:22.484Z,99682.72
2023-01-05T09:43:52.055Z,99680.56
2023-01-05T09:46:21.763Z,99682.94
2023-01-05T09:48:52.620Z,99674.69
2023-01-05T09:51:19.596Z,99683.66
2023-01-05T09:53:46.294Z,99678.16
2023-01-05T09:59:29.379Z,99687.16
2023-01-05T10:01:59.316Z,99697.06
2023-01-05T10:04:30.834Z,99691.47
2023-01-05T10:07:02.260Z,99682.97
2023-01-05T10:09:33.192Z,99677.44
2023-01-05T10:12:31.543Z,99698.16
2023-01-05T10:15:10.801Z,99687.06
2023-01-05T10:17:42.199Z,99702.28
2023-01-05T10:20:28.009Z,99706.09
2023-01-05T10:23:03.431Z,99699.47
2023-01-05T10:25:45.867Z,99713.78
2023-01-05T10:28:37.797Z,99708.00
2023-01-05T10:31:23.968Z,99721.97
2023-01-05T10:33:56.767Z,99722.47
2023-01-05T10:37:08.497Z,99713.09
2023-01-05T10:39:57.465Z,99714.34
2023-01-05T10:42:45.339Z,99718.75
2023-01-05T10:45:13.824Z,99719.56
2023-01-05T10:47:41.292Z,99706.50
2023-01-05T10:50:36.128Z,99714.00
2023-01-05T10:53:17.656Z,99706.38
2023-01-05T10:56:06.781Z,99712.19
2023-01-05T10:58:35.119Z,99721.13
2023-01-05T11:01:05.512Z,99720.13
2023-01-05T11:04:23.927Z,99725.56
2023-01-05T11:06:28.843Z,99733.06
2023-01-05T11:08:55.505Z,99734.56
2023-01-05T11:11:26.520Z,99733.69
2023-01-05T11:13:55.808Z,99726.03
2023-01-05T11:16:27.950Z,99729.78
2023-01-05T11:18:57.331Z,99739.47
2023-01-05T11:21:26.007Z,99744.22
2023-01-05T11:23:54.918Z,99748.06
2023-01-05T11:26:35.605Z,99737.34
2023-01-05T11:29:08.225Z,99745.44
2023-01-05T11:31:48.397Z,99749.19
2023-01-05T11:34:42.996Z,99730.13
2023-01-05T11:37:12.380Z,99738.41
2023-01-05T11:39:41.427Z,99739.94
2023-01-05T11:42:11.823Z,99758.94
2023-01-05T11:44:39.737Z,99759.94
2023-01-05T11:47:07.105Z,99752.59
2023-01-05T11:49:33.931Z,99767.38
2023-01-05T11:52:00.433Z,99775.66
2023-01-05T11:54:35.558Z,99771.44
2023-01-05T11:57:15.372Z,99761.88
2023-01-05T11:59:42.004Z,99765.31
2023-01-05T12:02:30.434Z,99760.50
2023-01-05T12:05:17.980Z,99767.91
2023-01-05T12:07:50.749Z,99771.84
2023-01-05T12:10:51.768Z,99754.72
2023-01-05T12:13:38.453Z,99773.25
2023-01-05T12:16:26.097Z,99770.06
2023-01-05T12:19:30.131Z,99780.75
2023-01-05T12:22:05.803Z,99746.75
2023-01-05T12:25:05.562Z,99767.78
2023-01-05T12:28:06.081Z,99777.53
2023-01-05T12:34:13.062Z,99794.91
2023-01-05T12:37:07.972Z,99786.94
2023-01-05T12:40:22.382Z,99798.94
2023-01-05T12:43:01.072Z,99801.44
2023-01-05T12:45:35.078Z,99794.59
2023-01-05T12:48:08.792Z,99806.94
2023-01-05T12:50:43.548Z,99806.03
2023-01-05T12:53:32.281Z,99818.97
2023-01-05T12:56:03.352Z,99820.41
2023-01-05T12:58:34.290Z,99822.34
2023-01-05T13:01:01.053Z,99813.97
2023-01-05T13:03:31.969Z,99822.06
2023-01-05T13:06:08.423Z,99821.63
2023-01-05T13:08:54.200Z,99824.34
2023-01-05T13:11:35.397Z,99828.94
2023-01-05T13:14:17.935Z,99822.88
2023-01-05T13:16:59.729Z,99818.94
2023-01-05T13:19:37.981Z,99825.00
2023-01-05T13:22:09.561Z,99824.03
2023-01-05T13:24:40.292Z,99829.91
2023-01-05T13:27:06.714Z,99818.91
2023-01-05T13:29:36.787Z,99832.25
2023-01-05T13:35:16.764Z,99841.59
2023-01-05T13:37:43.119Z,99849.03
2023-01-05T13:40:34.404Z,99853.50
2023-01-05T13:43:38.428Z,99855.03
2023-01-05T13:46:15.629Z,99847.19
2023-01-05T13:49:04.020Z,99852.34
2023-01-05T13:52:00.231Z,99859.81
2023-01-05T13:55:02.881Z,99866.97
2023-01-05T13:57:41.853Z,99880.38
2023-01-05T14:00:33.641Z,99885.97
2023-01-05T14:03:07.676Z,99877.88
2023-01-05T14:05:48.759Z,99885.22
2023-01-05T14:08:36.267Z,99897.06
2023-01-05T14:11:09.258Z,99897.41
2023-01-05T14:13:49.536Z,99905.59
2023-01-05T14:16:41.273Z,99891.13
2023-01-05T14:19:32.400Z,99891.56
2023-01-05T14:22:00.811Z,99896.56
2023-01-05T14:24:31.689Z,99897.41
2023-01-05T14:27:01.397Z,99900.53
2023-01-05T14:29:46.220Z,99902.25
2023-01-05T14:32:33.429Z,99912.03
2023-01-05T14:35:11.969Z,99918.66
2023-01-05T14:37:50.513Z,99914.59
2023-01-05T14:40:33.736Z,99925.34
2023-01-05T14:43:02.468Z,99934.81
2023-01-05T14:45:35.557Z,99916.19
2023-01-05T14:48:04.883Z,99934.09
2023-01-05T14:51:06.779Z,99947.38
2023-01-05T14:53:36.242Z,99939.88
2023-01-05T14:56:05.556Z,99955.41
2023-01-05T14:58:38.155Z,99953.56
2023-01-05T15:01:16.948Z,99954.28
2023-01-05T15:03:59.116Z,99954.84
2023-01-05T15:06:36.755Z,99959.66
2023-01-05T15:09:24.308Z,99962.50
2023-01-05T15:12:15.943Z,99969.25
2023-01-05T15:15:12.322Z,99960.22
2023-01-05T15:17:55.277Z,99967.84
2023-01-05T15:20:24.806Z,99962.34
2023-01-05T15:23:09.502Z,99974.63
2023-01-05T15:26:02.639Z,99975.03
2023-01-05T15:28:43.063Z,99972.50
2023-01-05T15:31:30.138Z,99979.81
2023-01-05T15:34:31.974Z,99981.78
2023-01-05T15:37:10.520Z,99990.41
2023-01-05T15:39:45.711Z,99987.59
2023-01-05T15:42:16.895Z,99995.47
2023-01-05T15:44:46.683Z,100006.44
2023-01-05T15:47:13.286Z,100021.09
2023-01-05T15:49:40.157Z,100020.72
2023-01-05T15:52:17.707Z,100021.94
2023-01-05T15:54:56.916Z,100025.59
2023-01-05T15:57:23.310Z,100031.69
2023-01-05T15:59:50.229Z,100041.09
2023-01-05T16:02:21.808Z,100050.69
2023-01-05T16:04:48.228Z,100048.41
2023-01-05T16:07:14.698Z,100057.44
2023-01-05T16:09:41.111Z,100066.19
2023-01-05T16:12:26.474Z,100067.34
2023-01-05T16:14:57.762Z,100065.50
2023-01-05T16:17:26.326Z,100090.47
2023-01-05T16:20:25.839Z,100087.09
2023-01-05T16:23:08.343Z,100085.38
2023-01-05T16:25:50.803Z,100100.75
2023-01-05T16:28:20.032Z,100100.63
2023-01-05T16:30:48.092Z,100115.84
2023-01-05T16:33:15.479Z,100117.28
2023-01-05T16:35:49.691Z,100110.47
2023-01-05T16:38:20.597Z,100114.72
2023-01-05T16:40:46.961Z,100126.28
2023-01-05T16:43:33.394Z,100131.34
2023-01-05T16:46:17.228Z,100121.19
2023-01-05T16:48:49.902Z,100133.44
2023-01-05T16:51:18.552Z,100138.59
2023-01-05T16:53:48.078Z,100127.31
2023-01-05T16:56:22.701Z,100128.22
2023-01-05T16:58:49.496Z,100149.78
2023-01-05T17:01:20.460Z,100145.81
2023-01-05T17:03:47.073Z,100140.16
2023-01-05T17:06:29.841Z,100151.13
2023-01-05T17:08:59.136Z,100152.59
2023-01-05T17:11:36.780Z,100154.69
2023-01-05T17:14:04.169Z,100160.63
2023-01-05T17:16:30.789Z,100166.59
2023-01-05T17:19:00.647Z,100157.44
2023-01-05T17:21:31.840Z,100161.31
2023-01-05T17:24:00.780Z,100159.00
2023-01-05T17:26:30.347Z,100162.06
2023-01-05T17:28:59.087Z,100164.88
2023-01-05T17:31:25.952Z,100167.56
2023-01-05T17:33:52.537Z,100179.97
2023-01-05T17:36:21.095Z,100182.38
2023-01-05T17:38:48.340Z,100177.50
2023-01-05T17:41:16.052Z,100184.56
2023-01-05T17:43:44.718Z,100189.66
2023-01-05T17:46:17.869Z,100190.34
2023-01-05T17:48:44.487Z,100194.00
2023-01-05T17:51:11.237Z,100196.69
2023-01-05T17:53:37.707Z,100195.81
2023-01-05T17:56:04.395Z,100195.44
2023-01-05T17:58:31.440Z,100200.81
2023-01-05T18:00:58.024Z,100205.50
2023-01-05T18:03:24.478Z,100207.59
2023-01-05T18:05:52.582Z,100210.28
2023-01-05T18:08:19.794Z,100211.50
2023-01-05T18:10:46.775Z,100210.41
2023-01-05T18:13:14.671Z,100212.94
2023-01-05T18:15:44.056Z,100213.22
2023-01-05T18:18:11.127Z,100217.72
2023-01-05T18:20:40.370Z,100224.13
2023-01-05T18:25:39.600Z,100219.75
2023-01-05T18:28:06.280Z,100238.38
2023-01-05T18:30:32.959Z,100240.19
2023-01-05T18:32:59.481Z,100235.56
2023-01-05T18:35:25.876Z,100231.31
2023-01-05T18:37:52.476Z,100245.81
2023-01-05T18:40:18.949Z,100247.63
2023-01-05T18:42:45.437Z,100246.53
2023-01-05T18:45:25.799Z,100252.41
2023-01-05T18:47:55.677Z,100263.84
2023-01-05T18:50:22.251Z,100265.53
2023-01-05T18:52:48.896Z,100264.31
2023-01-05T18:55:15.452Z,100271.38
2023-01-05T18:57:41.954Z,100269.66
2023-01-05T19:00:09.052Z,100267.72
2023-01-05T19:02:35.777Z,100266.84
2023-01-05T19:05:02.262Z,100272.13
2023-01-05T19:07:28.687Z,100270.41
2023-01-05T19:09:55.172Z,100267.88
2023-01-05T19:12:21.787Z,100275.06
2023-01-05T19:14:48.484Z,100264.16
2023-01-05T19:17:14.933Z,100267.47
2023-01-05T19:19:41.610Z,100262.22
2023-01-05T19:22:08.131Z,100264.91
2023-01-05T19:24:35.469Z,100257.59
2023-01-05T19:27:02.093Z,100273.78
2023-01-05T19:29:28.634Z,100257.59
2023-01-05T19:31:55.107Z,100265.88
2023-01-05T19:34:21.922Z,100263.22
2023-01-05T19:36:48.409Z,100263.09
2023-01-05T19:39:17.531Z,100253.09
2023-01-05T19:41:46.777Z,100261.75
2023-01-05T19:44:19.623Z,100257.38
2023-01-05T19:46:49.064Z,100254.56
2023-01-05T19:49:17.978Z,100271.63
2023-01-05T19:51:45.425Z,100268.19
2023-01-05T19:54:13.093Z,100270.25
2023-01-05T19:56:39.892Z,100280.72
2023-01-05T19:59:10.320Z,100275.13
2023-01-05T20:01:37.404Z,100276.09
2023-01-05T20:04:04.056Z,100276.09
2023-01-05T20:06:40.867Z,100265.63
2023-01-05T20:09:10.625Z,100282.31
2023-01-05T20:11:43.153Z,100284.47
2023-01-05T20:14:24.629Z,100293.38
2023-01-05T20:16:59.895Z,100300.44
2023-01-05T20:19:29.032Z,100297.63
2023-01-05T20:21:57.261Z,100302.88
2023-01-05T20:24:26.383Z,100311.38
2023-01-05T20:26:58.538Z,100314.44
2023-01-05T20:29:25.413Z,100314.56
2023-01-05T20:31:58.272Z,100313.56
2023-01-05T20:34:28.611Z,100319.06
2023-01-05T20:36:55.137Z,100321.00
2023-01-05T20:39:22.559Z,100316.50
2023-01-05T20:41:50.388Z,100315.16
2023-01-05T20:44:20.431Z,100326.13
2023-01-05T20:46:48.937Z,100328.91
2023-01-05T20:49:16.180Z,100324.47
2023-01-05T20:51:42.959Z,100329.81
2023-01-05T20:54:10.276Z,100327.94
2023-01-05T20:56:38.798Z,100324.81
2023-01-05T20:59:08.206Z,100335.66
2023-01-05T21:01:36.233Z,100332.97
2023-01-05T21:04:04.189Z,100327.16
2023-01-05T21:06:30.753Z,100330.69
2023-01-05T21:08:57.257Z,100333.97
2023-01-05T21:11:25.970Z,100337.72
2023-01-05T21:13:54.421Z,100345.03
2023-01-05T21:16:45.764Z,100349.03
2023-01-05T21:19:17.541Z,100352.81
2023-01-05T21:21:45.863Z,100350.13
2023-01-05T21:24:13.321Z,100352.56
2023-01-05T21:26:39.760Z,100352.94
2023-01-05T21:29:06.590Z,100350.88
2023-01-05T21:31:34.128Z,100358.16
2023-01-05T21:34:00.809Z,100346.38
2023-01-05T21:36:28.943Z,100358.91
2023-01-05T21:39:03.631Z,100363.53
2023-01-05T21:41:53.201Z,100357.47
2023-01-05T21:44:20.411Z,100357.94
2023-01-05T21:46:47.979Z,100371.56
2023-01-05T21:49:14.915Z,100364.00
2023-01-05T21:52:00.106Z,100362.66
2023-01-05T21:54:45.215Z,100366.06
2023-01-05T21:57:11.892Z,100356.47
2023-01-05T21:59:38.367Z,100360.63
2023-01-05T22:02:04.795Z,100363.66
2023-01-05T22:04:31.223Z,100366.09
2023-01-05T22:06:57.701Z,100365.50
2023-01-05T22:09:24.236Z,100359.66
2023-01-05T22:11:50.946Z,100361.13
2023-01-05T22:14:17.640Z,100368.16
2023-01-05T22:16:44.250Z,100366.22
2023-01-05T22:19:11.138Z,100367.56
2023-01-05T22:21:37.868Z,100361.72
2023-01-05T22:24:05.051Z,100363.53
2023-01-05T22:26:31.673Z,100356.50
2023-01-05T22:28:58.115Z,100353.22
2023-01-05T22:31:30.042Z,100348.94
2023-01-05T22:33:58.746Z,100345.78
2023-01-05T22:36:26.862Z,100360.88
2023-01-05T22:38:54.321Z,100363.06
2023-01-05T22:41:23.306Z,100359.66
2023-01-05T22:43:50.747Z,100360.38
2023-01-05T22:46:19.851Z,100369.00
2023-01-05T22:48:47.607Z,100371.81
2023-01-05T22:51:15.635Z,100373.03
2023-01-05T22:53:42.847Z,100372.78
2023-01-05T22:56:11.216Z,100370.47
2023-01-05T22:58:38.421Z,100369.63
2023-01-05T23:01:07.316Z,100381.19
2023-01-05T23:03:33.821Z,100380.09
2023-01-05T23:06:00.177Z,100385.44
2023-01-05T23:08:27.028Z,100386.16
2023-01-05T23:11:01.622Z,100390.06
2023-01-05T23:13:28.161Z,100383.50
2023-01-05T23:15:55.815Z,100385.66
2023-01-05T23:18:23.523Z,100392.38
2023-01-05T23:21:00.383Z,100401.25
2023-01-05T23:23:28.111Z,100386.28
2023-01-05T23:25:54.886Z,100380.94
2023-01-05T23:28:23.215Z,100386.66
2023-01-05T23:30:52.129Z,100388.84
2023-01-05T23:33:21.486Z,100377.50
2023-01-05T23:35:50.725Z,100376.66
2023-01-05T23:38:17.139Z,100372.78
2023-01-05T23:40:45.107Z,100388.56
2023-01-05T23:43:13.308Z,100389.09
2023-01-05T23:45:42.776Z,100389.69
2023-01-05T23:48:10.044Z,100387.16
2023-01-05T23:50:36.825Z,100386.16
2023-01-05T23:53:04.070Z,100377.41
2023-01-05T23:55:30.542Z,100388.00
2023-01-05T23:57:58.381Z,100378.16
